Airfield :







YOU CAN JOIN US ON...

 
LOGIN :

Register | Disclaimer

   EN    FR    IT 

 









Legend :    VFR   Marginal VFR   IFR   Intensive IFR   Very Intensive IFR
Visi :
Ceiling :
>= 8 km
>= 3000ft
5 to 8 km
1000 to 3000 ft
1500m to 5 km
500 to 1000 ft
800 to 1500m
200 to 500 ft
< 800m
< 200 ft
Symbols :   Thunderstorms  Fog  Heavy snow  Heavy precipitations  Wind > 20 kt






- Airport Elevation : 534 ft
- IATA code : PQI


KPQI - Northern Maine Regional Arpt At Presque Isle

CURRENT METAR :
  • 200256Z AUTO 34011KT 2 1/2SM -SN BR OVC018 M11/M13 A2981 RMK AO2 SLP134 P0000 60000 T11111133 51024

EXPIRED METARs :
  • 200249Z AUTO 34012KT 2 1/2SM -SN BR OVC020 M11/M13 A2981 RMK AO2 P0000
  • 200217Z AUTO 34014KT 4SM -SN BR FEW015 OVC022 M11/M13 A2980 RMK AO2 P0000
  • 200156Z AUTO 35013KT 3SM -SN BR OVC020 M11/M13 A2979 RMK AO2 SLP128 P0000 T11061128
  • 200056Z AUTO 34011KT 3SM -SN BR OVC018 M10/M12 A2977 RMK AO2 SLP121 P0000 T11001122

TAF KPQI
Valid from the 20 at 00:00 until the 21 at 00:00 UTC


192331Z 2000/2024 35009KT 2SM -SN OVC025
FM200200 35009KT 5SM -SHSN OVC020
FM200400 34009KT P6SM VCSH BKN025
FM200800 32007KT P6SM BKN035
FM201600 29006KT P6SM SCT050



MET'MAP, your aeronautical weather chart ! - Copyright ORBIFLY December 2007 - Disclaimer

ORBIFLY MET'MAP TEAM :

Programming & Development : Alexandra Zaïnal
Concept & original design : Baudouin d'Aumeries
Assistance for programming : Marc-Olivier Méhu
Technical & hardware support : Manuel Goepfert

Contact : metmap@orbifly.com




SOURCES & CREDITS :

   NOAA